createdAt,value
2019-06-21T00:01:01.258Z,23.77
2019-06-21T00:03:30.672Z,24.93
2019-06-21T00:06:00.093Z,22.58
2019-06-21T00:08:29.785Z,23.30
2019-06-21T00:10:59.207Z,22.30
2019-06-21T00:13:28.751Z,23.27
2019-06-21T00:15:58.120Z,23.33
2019-06-21T00:18:28.831Z,23.90
2019-06-21T00:20:58.191Z,22.70
2019-06-21T00:23:27.921Z,22.63
2019-06-21T00:25:57.585Z,24.07
2019-06-21T00:28:27.071Z,24.70
2019-06-21T00:30:56.802Z,23.17
2019-06-21T00:33:26.284Z,24.07
2019-06-21T00:35:56.162Z,23.70
2019-06-21T00:38:25.887Z,23.63
2019-06-21T00:40:56.209Z,23.05
2019-06-21T00:43:25.796Z,23.33
2019-06-21T00:45:56.163Z,23.62
2019-06-21T00:48:25.775Z,21.40
2019-06-21T00:50:56.112Z,25.97
2019-06-21T00:53:25.872Z,23.30
2019-06-21T00:55:56.199Z,24.45
2019-06-21T00:58:25.870Z,22.47
2019-06-21T01:00:56.175Z,24.52
2019-06-21T01:03:25.817Z,24.40
2019-06-21T01:05:56.169Z,26.57
2019-06-21T01:08:25.517Z,23.63
2019-06-21T01:10:56.542Z,28.40
2019-06-21T01:13:25.941Z,24.33
2019-06-21T01:15:56.186Z,27.50
2019-06-21T01:18:25.850Z,22.47
2019-06-21T01:20:56.184Z,23.35
2019-06-21T01:23:25.856Z,23.62
2019-06-21T01:25:56.306Z,23.80
2019-06-21T01:28:25.883Z,24.63
2019-06-21T01:30:56.260Z,25.68
2019-06-21T01:33:25.871Z,25.30
2019-06-21T01:35:56.265Z,26.35
2019-06-21T01:38:25.978Z,26.27
2019-06-21T01:40:56.394Z,29.98
2019-06-21T01:43:25.923Z,25.73
2019-06-21T01:45:56.321Z,27.90
2019-06-21T01:48:25.890Z,27.87
2019-06-21T01:50:56.359Z,26.20
2019-06-21T01:53:25.985Z,28.27
2019-06-21T01:55:56.480Z,26.80
2019-06-21T01:58:26.020Z,27.50
2019-06-21T02:00:56.264Z,25.77
2019-06-21T02:03:25.934Z,27.67
2019-06-21T02:05:56.239Z,27.65
2019-06-21T02:08:33.122Z,25.73
2019-06-21T02:10:58.661Z,26.63
2019-06-21T02:13:28.063Z,27.60
2019-06-21T02:15:57.479Z,28.20
2019-06-21T02:18:26.968Z,26.00
2019-06-21T02:20:56.380Z,25.57
2019-06-21T02:23:26.111Z,26.10
2019-06-21T02:25:56.425Z,26.48
2019-06-21T02:28:26.043Z,25.97
2019-06-21T02:30:56.395Z,28.70
2019-06-21T02:33:27.006Z,27.70
2019-06-21T02:35:56.426Z,27.03
2019-06-21T02:38:26.108Z,32.45
2019-06-21T02:40:56.454Z,30.88
2019-06-21T02:43:27.066Z,28.87
2019-06-21T02:45:56.487Z,33.20
2019-06-21T02:48:26.282Z,31.80
2019-06-21T02:50:57.196Z,29.85
2019-06-21T02:53:26.577Z,28.07
2019-06-21T02:55:56.561Z,30.13
2019-06-21T02:58:26.148Z,29.10
2019-06-21T03:00:56.449Z,30.97
2019-06-21T03:03:26.071Z,26.70
2019-06-21T03:05:56.392Z,26.90
2019-06-21T03:08:26.095Z,29.23
2019-06-21T03:10:56.787Z,25.80
2019-06-21T03:13:26.152Z,26.17
2019-06-21T03:15:56.560Z,23.93
2019-06-21T03:18:26.036Z,28.00
2019-06-21T03:20:56.568Z,26.97
2019-06-21T03:23:25.923Z,30.80
2019-06-21T03:25:56.711Z,26.00
2019-06-21T03:28:26.252Z,25.90
2019-06-21T03:30:56.711Z,24.77
2019-06-21T03:33:26.237Z,27.73
2019-06-21T03:35:56.612Z,24.72
2019-06-21T03:38:26.269Z,27.27
2019-06-21T03:40:57.342Z,25.80
2019-06-21T03:43:26.714Z,25.90
2019-06-21T03:45:56.722Z,29.60
2019-06-21T03:48:26.232Z,29.53
2019-06-21T03:51:08.299Z,28.57
2019-06-21T03:53:37.669Z,29.10
2019-06-21T03:56:07.517Z,31.75
2019-06-21T03:58:37.189Z,33.02
2019-06-21T04:01:06.721Z,31.83
2019-06-21T04:03:36.278Z,31.77
2019-06-21T04:06:05.689Z,31.27
2019-06-21T04:08:36.486Z,30.93
2019-06-21T04:11:05.876Z,30.33
2019-06-21T04:13:35.373Z,30.63
2019-06-21T04:16:04.940Z,31.27
2019-06-21T04:18:34.399Z,31.27
2019-06-21T04:21:04.082Z,29.23
2019-06-21T04:23:33.486Z,29.13
2019-06-21T04:26:03.435Z,31.23
2019-06-21T04:28:32.805Z,28.90
2019-06-21T04:31:02.538Z,31.17
2019-06-21T04:33:32.883Z,28.97
2019-06-21T04:36:02.599Z,29.52
2019-06-21T04:38:31.981Z,30.40
2019-06-21T04:41:01.697Z,29.63
2019-06-21T04:43:31.057Z,29.60
2019-06-21T04:46:00.750Z,29.30
2019-06-21T04:48:30.121Z,28.50
2019-06-21T04:50:59.812Z,29.07
2019-06-21T04:53:29.470Z,30.12
2019-06-21T04:55:58.890Z,28.20
2019-06-21T04:58:28.342Z,28.03
2019-06-21T05:00:58.074Z,28.60
2019-06-21T05:03:27.758Z,28.60
2019-06-21T05:05:57.180Z,27.33
2019-06-21T05:08:26.644Z,32.60
2019-06-21T05:10:57.014Z,29.42
2019-06-21T05:13:26.689Z,32.65
2019-06-21T05:15:57.130Z,31.60
2019-06-21T05:18:26.728Z,32.70
2019-06-21T05:20:57.061Z,31.68
2019-06-21T05:23:26.665Z,30.13
2019-06-21T05:25:57.008Z,30.40
2019-06-21T05:28:26.683Z,30.70
2019-06-21T05:30:57.135Z,32.70
2019-06-21T05:33:26.729Z,32.83
2019-06-21T05:35:57.291Z,32.35
2019-06-21T05:38:26.719Z,31.27
2019-06-21T05:40:57.077Z,29.77
2019-06-21T05:43:26.854Z,28.80
2019-06-21T05:45:57.257Z,28.23
2019-06-21T05:48:26.795Z,29.30
2019-06-21T05:50:57.125Z,29.45
2019-06-21T05:53:26.722Z,29.50
2019-06-21T05:55:57.153Z,28.50
2019-06-21T05:58:26.821Z,28.23
2019-06-21T06:00:57.347Z,28.27
2019-06-21T06:03:26.872Z,25.43
2019-06-21T06:05:57.130Z,26.35
2019-06-21T06:08:26.850Z,24.43
2019-06-21T06:11:06.942Z,22.50
2019-06-21T06:13:28.242Z,19.50
2019-06-21T06:15:57.919Z,18.60
2019-06-21T06:18:27.348Z,19.40
2019-06-21T06:20:57.186Z,17.30
2019-06-21T06:23:26.917Z,17.60
2019-06-21T06:25:57.134Z,20.43
2019-06-21T06:28:26.566Z,16.73
2019-06-21T06:30:57.421Z,17.48
2019-06-21T06:33:26.966Z,15.33
2019-06-21T06:35:57.206Z,16.23
2019-06-21T06:38:26.877Z,13.50
2019-06-21T06:40:57.162Z,14.20
2019-06-21T06:43:26.592Z,15.13
2019-06-21T06:45:57.299Z,14.18
2019-06-21T06:48:26.949Z,12.47
2019-06-21T06:50:57.286Z,10.78
2019-06-21T06:53:26.881Z,9.80
2019-06-21T06:55:57.430Z,8.90
2019-06-21T06:58:27.127Z,10.80
2019-06-21T07:00:57.225Z,9.65
2019-06-21T07:03:26.957Z,11.20
2019-06-21T07:05:57.266Z,11.93
2019-06-21T07:08:26.929Z,12.40
2019-06-21T07:10:57.216Z,12.33
2019-06-21T07:13:30.533Z,14.40
2019-06-21T07:15:58.346Z,18.60
2019-06-21T07:18:28.384Z,12.80
2019-06-21T07:20:58.062Z,10.07
2019-06-21T07:23:27.457Z,13.70
2019-06-21T07:25:57.290Z,11.57
2019-06-21T07:28:26.701Z,11.27
2019-06-21T07:30:57.347Z,12.85
2019-06-21T07:33:26.930Z,10.57
2019-06-21T07:35:57.292Z,8.25
2019-06-21T07:38:26.964Z,7.93
2019-06-21T07:40:57.254Z,7.15
2019-06-21T07:43:26.781Z,8.13
2019-06-21T07:45:57.413Z,9.58
2019-06-21T07:48:27.067Z,8.43
2019-06-21T07:50:57.347Z,9.35
2019-06-21T07:53:26.964Z,9.80
2019-06-21T07:55:57.602Z,8.25
2019-06-21T07:58:27.190Z,9.60
2019-06-21T08:00:57.469Z,8.08
2019-06-21T08:03:27.204Z,10.40
2019-06-21T08:05:57.418Z,7.97
2019-06-21T08:08:27.051Z,9.20
2019-06-21T08:10:57.364Z,5.70
2019-06-21T08:13:26.759Z,7.10
2019-06-21T08:15:57.499Z,5.50
2019-06-21T08:18:27.206Z,7.47
2019-06-21T08:20:57.440Z,5.65
2019-06-21T08:23:27.061Z,6.97
2019-06-21T08:25:57.418Z,4.95
2019-06-21T08:28:26.769Z,6.60
2019-06-21T08:30:56.178Z,7.70
2019-06-21T08:33:25.541Z,5.67
2019-06-21T08:35:55.094Z,4.97
2019-06-21T08:38:24.528Z,5.20
2019-06-21T08:40:54.282Z,7.73
2019-06-21T08:43:23.669Z,5.00
2019-06-21T08:45:53.139Z,5.10
2019-06-21T08:48:22.503Z,6.10
2019-06-21T08:50:53.072Z,4.20
2019-06-21T08:53:22.482Z,4.90
2019-06-21T08:55:51.848Z,4.40
2019-06-21T08:58:21.257Z,4.90
2019-06-21T09:00:50.654Z,5.37
2019-06-21T09:03:20.767Z,5.27
2019-06-21T09:05:50.210Z,3.10
2019-06-21T09:08:20.329Z,3.83
2019-06-21T09:10:49.692Z,4.30
2019-06-21T09:13:20.376Z,3.67
2019-06-21T09:15:50.802Z,5.30
2019-06-21T09:18:20.238Z,4.03
2019-06-21T09:20:49.621Z,6.00
2019-06-21T09:23:19.255Z,5.73
2019-06-21T09:25:48.550Z,5.70
2019-06-21T09:28:18.243Z,6.62
2019-06-21T09:30:47.639Z,4.57
2019-06-21T09:33:17.205Z,4.60
2019-06-21T09:35:46.566Z,4.07
2019-06-21T09:38:16.185Z,4.40
2019-06-21T09:40:45.545Z,6.37
2019-06-21T09:43:21.559Z,5.58
2019-06-21T09:45:46.323Z,4.30
2019-06-21T09:48:15.722Z,4.10
2019-06-21T09:50:45.230Z,4.30
2019-06-21T09:53:26.305Z,4.00
2019-06-21T09:55:45.673Z,5.13
2019-06-21T09:58:15.340Z,4.80
2019-06-21T10:00:44.825Z,7.20
2019-06-21T10:03:14.290Z,4.30
2019-06-21T10:05:43.689Z,4.30
2019-06-21T10:08:13.477Z,4.42
2019-06-21T10:10:42.902Z,6.10
2019-06-21T10:13:27.265Z,3.20
2019-06-21T10:15:43.650Z,3.20
2019-06-21T10:18:13.358Z,5.87
2019-06-21T10:20:42.773Z,4.43
2019-06-21T10:23:12.658Z,3.92
2019-06-21T10:25:42.475Z,3.50
2019-06-21T10:28:12.098Z,5.23
2019-06-21T10:30:41.605Z,4.70
2019-06-21T10:33:11.376Z,3.35
2019-06-21T10:35:40.820Z,3.47
2019-06-21T10:38:10.560Z,3.83
2019-06-21T10:40:39.920Z,3.90
2019-06-21T10:43:09.620Z,3.60
2019-06-21T10:45:39.334Z,4.25
2019-06-21T10:48:08.917Z,5.13
2019-06-21T10:50:39.348Z,4.50
2019-06-21T10:53:08.715Z,3.50
2019-06-21T10:55:38.430Z,3.40
2019-06-21T10:58:07.759Z,3.93
2019-06-21T11:00:37.783Z,3.10
2019-06-21T11:03:07.719Z,2.90
2019-06-21T11:05:37.370Z,3.37
2019-06-21T11:08:07.037Z,5.55
2019-06-21T11:10:36.512Z,4.63
2019-06-21T11:13:06.780Z,3.30
2019-06-21T11:15:36.581Z,3.67
2019-06-21T11:18:07.470Z,5.10
2019-06-21T11:20:37.390Z,3.83
2019-06-21T11:23:07.966Z,6.40
2019-06-21T11:25:37.558Z,4.80
2019-06-21T11:28:07.376Z,2.80
2019-06-21T11:30:36.840Z,3.30
2019-06-21T11:33:06.754Z,3.90
2019-06-21T11:35:36.459Z,3.67
2019-06-21T11:38:07.773Z,3.62
2019-06-21T11:40:36.962Z,3.30
2019-06-21T11:43:06.618Z,5.37
2019-06-21T11:45:36.978Z,4.00
2019-06-21T11:48:07.093Z,3.22
2019-06-21T11:50:37.466Z,4.23
2019-06-21T11:53:07.299Z,3.50
2019-06-21T11:55:38.044Z,3.70
2019-06-21T11:58:07.544Z,3.53
2019-06-21T12:00:36.978Z,5.23
2019-06-21T12:03:07.270Z,3.65
2019-06-21T12:05:37.732Z,3.50
2019-06-21T12:08:08.769Z,2.67
2019-06-21T12:10:38.241Z,2.77
2019-06-21T12:13:08.011Z,2.70
2019-06-21T12:15:37.585Z,3.23
2019-06-21T12:18:08.797Z,3.57
2019-06-21T12:20:38.086Z,2.87
2019-06-21T12:23:20.667Z,3.17
2019-06-21T12:25:38.889Z,3.93
2019-06-21T12:28:09.468Z,3.40
2019-06-21T12:30:39.888Z,3.13
2019-06-21T12:33:10.741Z,2.80
2019-06-21T12:35:41.581Z,3.20
2019-06-21T12:38:11.039Z,3.08
2019-06-21T12:40:40.738Z,3.77
2019-06-21T12:43:10.541Z,3.47
2019-06-21T12:45:57.204Z,3.57
2019-06-21T12:48:10.994Z,3.70
2019-06-21T12:50:40.540Z,3.23
2019-06-21T12:53:10.920Z,4.37
2019-06-21T12:55:40.774Z,3.40
2019-06-21T12:58:10.180Z,3.33
2019-06-21T13:00:39.648Z,4.23
2019-06-21T13:03:09.199Z,3.77
2019-06-21T13:05:38.594Z,3.60
2019-06-21T13:08:07.953Z,3.17
2019-06-21T13:10:37.342Z,4.20
2019-06-21T13:13:07.059Z,3.80
2019-06-21T13:15:36.703Z,6.40
2019-06-21T13:18:07.438Z,5.50
2019-06-21T13:20:37.019Z,3.53
2019-06-21T13:23:06.681Z,3.80
2019-06-21T13:25:36.062Z,5.13
2019-06-21T13:28:05.862Z,3.27
2019-06-21T13:30:35.286Z,2.70
2019-06-21T13:33:05.520Z,3.83
2019-06-21T13:35:35.879Z,2.53
2019-06-21T13:38:06.075Z,2.90
2019-06-21T13:40:36.490Z,3.13
2019-06-21T13:43:06.188Z,2.87
2019-06-21T13:45:35.553Z,3.40
2019-06-21T13:48:05.814Z,3.10
2019-06-21T13:50:35.321Z,3.93
2019-06-21T13:53:06.243Z,2.60
2019-06-21T13:55:35.572Z,2.30
2019-06-21T13:58:06.171Z,2.73
2019-06-21T14:00:35.875Z,2.20
2019-06-21T14:03:05.754Z,2.87
2019-06-21T14:05:35.165Z,3.17
2019-06-21T14:08:05.438Z,4.10
2019-06-21T14:10:35.098Z,6.20
2019-06-21T14:13:04.940Z,3.97
2019-06-21T14:15:39.814Z,2.13
2019-06-21T14:18:06.661Z,3.47
2019-06-21T14:20:36.073Z,2.43
2019-06-21T14:23:05.472Z,2.33
2019-06-21T14:25:49.990Z,1.87
2019-06-21T14:28:19.346Z,3.67
2019-06-21T14:30:49.082Z,2.80
2019-06-21T14:33:18.469Z,2.20
2019-06-21T14:35:47.999Z,1.70
2019-06-21T14:38:17.406Z,2.83
2019-06-21T14:40:48.098Z,2.27
2019-06-21T14:43:17.458Z,2.47
2019-06-21T14:45:56.247Z,1.90
2019-06-21T14:48:18.216Z,6.00
2019-06-21T14:50:47.630Z,2.00
2019-06-21T14:53:17.582Z,3.73
2019-06-21T14:55:47.209Z,1.90
2019-06-21T14:58:16.569Z,1.77
2019-06-21T15:00:46.188Z,1.90
2019-06-21T15:03:15.598Z,2.73
2019-06-21T15:05:45.104Z,2.83
2019-06-21T15:08:14.462Z,3.17
2019-06-21T15:10:43.858Z,1.70
2019-06-21T15:13:20.475Z,2.33
2019-06-21T15:15:44.509Z,4.33
2019-06-21T15:18:15.201Z,1.90
2019-06-21T15:20:44.624Z,2.27
2019-06-21T15:23:14.340Z,3.15
2019-06-21T15:25:43.732Z,2.60
2019-06-21T15:28:13.480Z,2.07
2019-06-21T15:30:43.164Z,2.03
2019-06-21T15:33:12.554Z,4.60
2019-06-21T15:35:43.125Z,2.43
2019-06-21T15:38:12.549Z,2.67
2019-06-21T15:40:42.308Z,2.40
2019-06-21T15:43:11.723Z,1.40
2019-06-21T15:45:41.250Z,4.50
2019-06-21T15:48:10.628Z,1.93
2019-06-21T15:50:40.208Z,2.43
2019-06-21T15:53:09.576Z,1.95
2019-06-21T15:55:38.990Z,1.90
2019-06-21T15:58:08.339Z,1.73
2019-06-21T16:00:37.754Z,1.77
2019-06-21T16:03:07.605Z,2.10
2019-06-21T16:05:37.213Z,1.60
2019-06-21T16:08:06.608Z,3.58
2019-06-21T16:10:36.254Z,3.62
2019-06-21T16:13:05.814Z,1.83
2019-06-21T16:15:35.256Z,2.77
2019-06-21T16:18:04.663Z,2.63
2019-06-21T16:20:34.249Z,2.37
2019-06-21T16:23:03.906Z,2.77
2019-06-21T16:25:33.391Z,3.10
2019-06-21T16:28:02.744Z,2.20
2019-06-21T16:30:32.506Z,3.53
2019-06-21T16:33:02.184Z,2.83
2019-06-21T16:35:31.592Z,2.90
2019-06-21T16:38:00.971Z,15.93
2019-06-21T16:40:30.496Z,2.93
2019-06-21T16:42:59.867Z,2.17
2019-06-21T16:45:29.358Z,2.23
2019-06-21T16:47:58.756Z,2.10
2019-06-21T16:50:28.308Z,3.83
2019-06-21T16:52:58.597Z,3.35
2019-06-21T16:55:27.989Z,3.50
2019-06-21T16:57:58.722Z,3.58
2019-06-21T17:00:31.509Z,2.67
2019-06-21T17:03:00.890Z,2.87
2019-06-21T17:05:30.363Z,5.40
2019-06-21T17:08:00.016Z,5.53
2019-06-21T17:10:29.481Z,6.13
2019-06-21T17:12:58.852Z,6.57
2019-06-21T17:15:28.402Z,12.77
2019-06-21T17:17:58.730Z,6.03
2019-06-21T17:20:28.398Z,3.30
2019-06-21T17:22:58.709Z,3.45
2019-06-21T17:25:34.006Z,4.30
2019-06-21T17:28:03.766Z,4.70
2019-06-21T17:30:33.597Z,3.67
2019-06-21T17:33:03.798Z,9.10
2019-06-21T17:35:33.410Z,7.90
2019-06-21T17:38:02.935Z,6.42
2019-06-21T17:40:32.650Z,7.03
2019-06-21T17:43:03.931Z,9.83
2019-06-21T17:45:34.102Z,8.03
2019-06-21T17:48:03.663Z,8.00
2019-06-21T17:50:33.354Z,8.88
2019-06-21T17:53:02.858Z,7.92
2019-06-21T17:55:32.651Z,10.23
2019-06-21T17:58:02.020Z,8.43
2019-06-21T18:00:44.546Z,9.03
2019-06-21T18:03:13.917Z,10.47
2019-06-21T18:05:49.269Z,13.83
2019-06-21T18:08:18.635Z,8.77
2019-06-21T18:10:48.039Z,8.80
2019-06-21T18:13:17.566Z,9.77
2019-06-21T18:15:46.987Z,9.27
2019-06-21T18:18:16.693Z,10.60
2019-06-21T18:20:46.387Z,9.28
2019-06-21T18:23:15.741Z,10.35
2019-06-21T18:25:45.123Z,10.30
2019-06-21T18:28:14.799Z,10.90
2019-06-21T18:30:44.494Z,8.80
2019-06-21T18:33:13.837Z,11.33
2019-06-21T18:35:43.534Z,9.47
2019-06-21T18:38:12.986Z,9.53
2019-06-21T18:40:42.696Z,10.23
2019-06-21T18:43:12.107Z,9.20
2019-06-21T18:45:41.622Z,10.97
2019-06-21T18:48:12.425Z,8.20
2019-06-21T18:50:41.987Z,10.30
2019-06-21T18:53:11.788Z,10.03
2019-06-21T18:55:41.752Z,9.10
2019-06-21T18:58:11.521Z,6.75
2019-06-21T19:00:41.902Z,8.53
2019-06-21T19:03:11.589Z,8.15
2019-06-21T19:05:40.971Z,10.27
2019-06-21T19:08:10.859Z,11.25
2019-06-21T19:10:40.263Z,8.43
2019-06-21T19:13:09.922Z,7.37
2019-06-21T19:15:39.724Z,8.40
2019-06-21T19:18:09.081Z,9.20
2019-06-21T19:20:38.594Z,8.23
2019-06-21T19:23:08.250Z,9.00
2019-06-21T19:25:37.932Z,9.87
2019-06-21T19:28:07.576Z,9.03
2019-06-21T19:30:36.987Z,8.27
2019-06-21T19:33:06.637Z,9.35
2019-06-21T19:35:37.631Z,9.10
2019-06-21T19:38:07.566Z,8.30
2019-06-21T19:40:36.957Z,8.07
2019-06-21T19:43:06.674Z,6.97
2019-06-21T19:45:36.030Z,9.10
2019-06-21T19:48:05.718Z,8.70
2019-06-21T19:50:35.083Z,11.17
2019-06-21T19:53:04.931Z,8.05
2019-06-21T19:55:34.302Z,10.00
2019-06-21T19:58:04.008Z,8.07
2019-06-21T20:00:33.750Z,8.10
2019-06-21T20:03:04.209Z,10.80
2019-06-21T20:05:33.669Z,12.77
2019-06-21T20:08:03.115Z,11.12
2019-06-21T20:10:32.780Z,15.70
2019-06-21T20:13:02.213Z,14.80
2019-06-21T20:15:34.145Z,14.50
2019-06-21T20:18:04.998Z,16.10
2019-06-21T20:20:34.777Z,15.63
2019-06-21T20:23:04.443Z,12.60
2019-06-21T20:25:33.879Z,12.27
2019-06-21T20:28:05.627Z,11.90
2019-06-21T20:30:34.643Z,10.90
2019-06-21T20:33:04.047Z,10.53
2019-06-21T20:35:33.764Z,12.30
2019-06-21T20:38:03.456Z,13.88
2019-06-21T20:40:33.018Z,12.13
2019-06-21T20:43:02.407Z,11.63
2019-06-21T20:45:31.853Z,11.53
2019-06-21T20:48:02.198Z,11.73
2019-06-21T20:50:31.865Z,11.90
2019-06-21T20:53:01.497Z,11.57
2019-06-21T20:55:31.008Z,11.73
2019-06-21T20:58:00.712Z,11.63
2019-06-21T21:00:36.397Z,11.50
2019-06-21T21:03:06.951Z,11.03
2019-06-21T21:05:37.354Z,11.67
2019-06-21T21:08:07.093Z,10.48
2019-06-21T21:10:36.465Z,12.17
2019-06-21T21:13:06.172Z,11.23
2019-06-21T21:15:35.855Z,12.27
2019-06-21T21:18:05.306Z,11.30
2019-06-21T21:20:34.817Z,12.10
2019-06-21T21:23:05.492Z,12.27
2019-06-21T21:25:34.938Z,11.70
2019-06-21T21:28:04.345Z,11.40
2019-06-21T21:30:33.881Z,10.83
2019-06-21T21:33:03.449Z,12.40
2019-06-21T21:35:32.847Z,11.40
2019-06-21T21:38:02.561Z,11.57
2019-06-21T21:40:32.031Z,9.53
2019-06-21T21:43:01.904Z,9.80
2019-06-21T21:45:31.283Z,10.30
2019-06-21T21:48:01.004Z,10.80
2019-06-21T21:50:30.367Z,8.20
2019-06-21T21:53:00.075Z,7.73
2019-06-21T21:55:29.475Z,8.77
2019-06-21T21:57:59.345Z,8.67
2019-06-21T22:00:48.694Z,7.73
2019-06-21T22:03:20.039Z,6.80
2019-06-21T22:05:49.397Z,9.37
2019-06-21T22:08:18.970Z,8.67
2019-06-21T22:10:48.330Z,7.23
2019-06-21T22:13:19.733Z,7.40
2019-06-21T22:15:49.100Z,6.63
2019-06-21T22:18:18.479Z,7.63
2019-06-21T22:20:48.010Z,7.43
2019-06-21T22:23:17.363Z,8.13
2019-06-21T22:25:47.018Z,8.40
2019-06-21T22:28:16.434Z,7.00
2019-06-21T22:30:46.012Z,7.13
2019-06-21T22:33:15.418Z,7.67
2019-06-21T22:35:44.987Z,6.70
2019-06-21T22:38:14.378Z,7.50
2019-06-21T22:40:44.810Z,8.50
2019-06-21T22:43:14.372Z,9.10
2019-06-21T22:45:44.044Z,8.13
2019-06-21T22:48:13.504Z,8.80
2019-06-21T22:50:43.059Z,10.00
2019-06-21T22:53:12.461Z,8.78
2019-06-21T22:55:42.112Z,9.53
2019-06-21T22:58:11.503Z,10.80
2019-06-21T23:00:41.064Z,10.63
2019-06-21T23:03:10.588Z,12.10
2019-06-21T23:05:40.134Z,12.00
2019-06-21T23:08:11.348Z,12.40
2019-06-21T23:10:40.731Z,12.17
2019-06-21T23:13:10.447Z,13.13
2019-06-21T23:15:40.113Z,12.57
2019-06-21T23:18:11.365Z,12.80
2019-06-21T23:20:41.064Z,13.00
2019-06-21T23:23:28.450Z,13.85
2019-06-21T23:25:59.958Z,13.68
2019-06-21T23:28:29.437Z,14.47
2019-06-21T23:30:59.522Z,14.63
2019-06-21T23:33:29.180Z,13.10
2019-06-21T23:35:59.535Z,13.53
2019-06-21T23:38:29.152Z,13.43
2019-06-21T23:40:59.464Z,13.30
2019-06-21T23:43:29.187Z,14.73
2019-06-21T23:45:59.604Z,14.80
2019-06-21T23:48:29.714Z,15.30
2019-06-21T23:50:59.527Z,15.33
2019-06-21T23:53:29.183Z,14.80
2019-06-21T23:55:59.462Z,14.00
2019-06-21T23:58:28.889Z,13.90
